createdAt,value
2022-11-09T00:00:16.814Z,17.00
2022-11-09T00:02:44.838Z,12.53
2022-11-09T00:05:12.745Z,12.43
2022-11-09T00:07:41.880Z,11.30
2022-11-09T00:10:10.295Z,10.37
2022-11-09T00:12:38.118Z,10.90
2022-11-09T00:15:06.627Z,8.00
2022-11-09T00:17:34.426Z,8.40
2022-11-09T00:20:07.102Z,8.20
2022-11-09T00:22:35.092Z,8.27
2022-11-09T00:25:04.250Z,6.87
2022-11-09T00:27:32.029Z,6.57
2022-11-09T00:30:01.864Z,4.93
2022-11-09T00:32:29.807Z,4.33
2022-11-09T00:34:59.916Z,5.80
2022-11-09T00:37:30.489Z,5.90
2022-11-09T00:39:59.306Z,4.00
2022-11-09T00:42:29.505Z,3.93
2022-11-09T00:44:58.022Z,6.00
2022-11-09T00:47:25.803Z,4.70
2022-11-09T00:49:53.722Z,4.07
2022-11-09T00:52:21.576Z,4.17
2022-11-09T00:54:49.555Z,4.87
2022-11-09T00:57:17.275Z,5.33
2022-11-09T00:59:48.147Z,5.23
2022-11-09T01:06:40.527Z,5.17
2022-11-09T01:09:11.082Z,5.90
2022-11-09T01:11:39.189Z,5.80
2022-11-09T01:14:07.047Z,6.30
2022-11-09T01:16:38.134Z,5.13
2022-11-09T01:19:06.012Z,5.07
2022-11-09T01:21:33.871Z,5.67
2022-11-09T01:24:02.014Z,4.90
2022-11-09T01:26:30.706Z,4.60
2022-11-09T01:28:58.520Z,5.23
2022-11-09T01:31:26.706Z,4.90
2022-11-09T01:33:57.980Z,5.00
2022-11-09T01:36:26.384Z,4.07
2022-11-09T01:38:54.445Z,4.57
2022-11-09T01:41:24.805Z,4.80
2022-11-09T01:44:08.858Z,4.53
2022-11-09T01:46:48.806Z,4.37
2022-11-09T01:49:31.624Z,4.47
2022-11-09T01:52:01.915Z,4.50
2022-11-09T01:54:36.049Z,5.47
2022-11-09T01:57:07.382Z,4.23
2022-11-09T01:59:39.031Z,3.93
2022-11-09T02:02:06.878Z,3.80
2022-11-09T02:04:45.875Z,3.93
2022-11-09T02:07:14.106Z,3.30
2022-11-09T02:09:53.048Z,3.57
2022-11-09T02:12:23.945Z,4.23
2022-11-09T02:14:54.757Z,3.90
2022-11-09T02:17:23.201Z,3.90
2022-11-09T02:19:53.057Z,3.63
2022-11-09T02:22:22.408Z,4.20
2022-11-09T02:24:53.990Z,3.30
2022-11-09T02:27:24.355Z,3.40
2022-11-09T02:29:54.578Z,3.20
2022-11-09T02:32:26.391Z,3.33
2022-11-09T02:34:57.052Z,3.03
2022-11-09T02:37:29.775Z,3.40
2022-11-09T02:39:59.853Z,3.40
2022-11-09T02:42:27.815Z,3.20
2022-11-09T02:45:00.362Z,3.43
2022-11-09T02:47:30.922Z,3.43
2022-11-09T02:49:59.207Z,3.37
2022-11-09T02:52:29.730Z,3.47
2022-11-09T02:54:57.756Z,2.73
2022-11-09T02:57:25.665Z,2.43
2022-11-09T02:59:53.702Z,3.13
2022-11-09T03:02:23.939Z,2.60
2022-11-09T03:04:53.199Z,2.67
2022-11-09T03:07:21.875Z,2.63
2022-11-09T03:09:51.052Z,3.27
2022-11-09T03:12:31.276Z,3.40
2022-11-09T03:15:09.926Z,3.30
2022-11-09T03:17:41.901Z,2.60
2022-11-09T03:20:11.013Z,3.03
2022-11-09T03:22:41.187Z,3.33
2022-11-09T03:25:11.510Z,3.20
2022-11-09T03:27:39.784Z,2.50
2022-11-09T03:30:10.394Z,2.27
2022-11-09T03:32:38.676Z,2.50
2022-11-09T03:35:08.163Z,3.20
2022-11-09T03:37:36.333Z,3.70
2022-11-09T03:40:05.162Z,3.87
2022-11-09T03:42:34.344Z,3.57
2022-11-09T03:45:04.592Z,3.37
2022-11-09T03:47:34.371Z,3.03
2022-11-09T03:50:02.141Z,3.57
2022-11-09T03:52:29.913Z,3.13
2022-11-09T03:54:57.633Z,3.10
2022-11-09T03:57:25.360Z,4.33
2022-11-09T03:59:54.449Z,3.00
2022-11-09T04:02:22.201Z,3.43
2022-11-09T04:04:50.000Z,3.53
2022-11-09T04:07:17.853Z,3.90
2022-11-09T04:09:45.634Z,3.77
2022-11-09T04:12:13.362Z,3.53
2022-11-09T04:14:41.368Z,3.73
2022-11-09T04:17:10.486Z,3.73
2022-11-09T04:19:38.550Z,3.87
2022-11-09T04:22:06.306Z,2.73
2022-11-09T04:24:34.034Z,3.87
2022-11-09T04:27:01.795Z,3.87
2022-11-09T04:29:29.605Z,3.63
2022-11-09T04:31:57.319Z,3.30
2022-11-09T04:34:26.330Z,4.50
2022-11-09T04:36:54.085Z,5.40
2022-11-09T04:39:21.945Z,3.47
2022-11-09T04:41:49.642Z,2.77
2022-11-09T04:44:17.467Z,3.73
2022-11-09T04:46:45.180Z,3.60
2022-11-09T04:49:12.913Z,4.50
2022-11-09T04:51:42.129Z,3.10
2022-11-09T04:54:10.261Z,3.87
2022-11-09T04:56:38.017Z,6.23
2022-11-09T04:59:06.124Z,6.50
2022-11-09T05:01:33.925Z,6.40
2022-11-09T05:04:01.711Z,4.63
2022-11-09T05:06:35.642Z,5.50
2022-11-09T05:09:06.757Z,6.80
2022-11-09T05:11:36.079Z,5.80
2022-11-09T05:14:04.738Z,5.00
2022-11-09T05:16:33.064Z,4.90
2022-11-09T05:19:00.793Z,5.33
2022-11-09T05:21:28.585Z,5.10
2022-11-09T05:24:01.503Z,4.90
2022-11-09T05:26:32.628Z,3.93
2022-11-09T05:29:01.057Z,4.40
2022-11-09T05:31:29.664Z,5.27
2022-11-09T05:33:58.124Z,5.00
2022-11-09T05:36:27.746Z,5.83
2022-11-09T05:38:56.031Z,4.70
2022-11-09T05:41:23.788Z,4.67
2022-11-09T05:43:52.944Z,3.40
2022-11-09T05:46:20.778Z,5.07
2022-11-09T05:48:48.550Z,3.70
2022-11-09T05:51:18.268Z,5.47
2022-11-09T05:53:47.052Z,5.13
2022-11-09T05:56:15.925Z,5.50
2022-11-09T05:58:47.608Z,5.57
2022-11-09T06:01:19.679Z,5.33
2022-11-09T06:03:47.893Z,5.20
2022-11-09T06:06:17.610Z,4.77
2022-11-09T06:08:45.487Z,4.27
2022-11-09T06:11:18.464Z,4.63
2022-11-09T06:13:51.433Z,4.37
2022-11-09T06:16:20.572Z,4.83
2022-11-09T06:18:48.315Z,4.33
2022-11-09T06:21:16.059Z,4.17
2022-11-09T06:23:43.769Z,4.93
2022-11-09T06:26:12.607Z,4.93
2022-11-09T06:28:45.572Z,5.27
2022-11-09T06:31:16.413Z,4.83
2022-11-09T06:33:45.530Z,5.00
2022-11-09T06:36:13.881Z,4.40
2022-11-09T06:38:41.895Z,4.50
2022-11-09T06:41:10.726Z,5.30
2022-11-09T06:43:38.552Z,4.57
2022-11-09T06:46:07.026Z,5.67
2022-11-09T06:48:35.083Z,5.33
2022-11-09T06:51:05.681Z,4.50
2022-11-09T06:53:33.935Z,4.20
2022-11-09T06:56:03.495Z,5.27
2022-11-09T06:58:32.014Z,4.97
2022-11-09T07:01:00.306Z,4.40
2022-11-09T07:03:31.080Z,6.50
2022-11-09T07:05:58.867Z,5.77
2022-11-09T07:08:27.963Z,4.77
2022-11-09T07:10:55.791Z,5.17
2022-11-09T07:13:23.947Z,6.43
2022-11-09T07:15:54.683Z,6.67
2022-11-09T07:18:22.507Z,6.10
2022-11-09T07:20:50.574Z,6.07
2022-11-09T07:23:18.972Z,5.07
2022-11-09T07:25:48.211Z,4.20
2022-11-09T07:28:16.560Z,4.20
2022-11-09T07:30:44.720Z,3.90
2022-11-09T07:33:18.080Z,4.23
2022-11-09T07:35:46.688Z,4.17
2022-11-09T07:38:15.690Z,4.53
2022-11-09T07:40:43.919Z,3.87
2022-11-09T07:43:13.762Z,5.20
2022-11-09T07:45:43.734Z,3.77
2022-11-09T07:48:13.311Z,3.63
2022-11-09T07:50:41.410Z,4.97
2022-11-09T07:53:11.207Z,4.10
2022-11-09T07:55:38.929Z,3.43
2022-11-09T07:58:09.319Z,4.37
2022-11-09T08:00:40.961Z,3.87
2022-11-09T08:03:09.155Z,2.90
2022-11-09T08:05:37.151Z,5.10
2022-11-09T08:08:07.326Z,4.20
2022-11-09T08:10:36.345Z,3.40
2022-11-09T08:13:05.810Z,3.93
2022-11-09T08:15:35.539Z,3.37
2022-11-09T08:18:07.379Z,4.20
2022-11-09T08:20:35.791Z,3.40
2022-11-09T08:23:04.749Z,2.90
2022-11-09T08:25:33.058Z,4.67
2022-11-09T08:28:00.905Z,3.23
2022-11-09T08:30:28.856Z,4.70
2022-11-09T08:32:56.878Z,3.23
2022-11-09T08:35:26.605Z,5.13
2022-11-09T08:37:54.941Z,3.50
2022-11-09T08:40:24.532Z,3.67
2022-11-09T08:42:53.115Z,5.23
2022-11-09T08:45:24.353Z,3.77
2022-11-09T08:47:58.351Z,5.17
2022-11-09T08:50:28.400Z,4.47
2022-11-09T08:52:56.811Z,3.70
2022-11-09T08:55:26.921Z,5.17
2022-11-09T08:57:55.978Z,4.37
2022-11-09T09:00:26.171Z,3.60
2022-11-09T09:02:54.739Z,3.83
2022-11-09T09:05:23.409Z,2.90
2022-11-09T09:07:52.525Z,3.20
2022-11-09T09:10:20.298Z,3.60
2022-11-09T09:12:48.212Z,3.20
2022-11-09T09:15:16.129Z,4.93
2022-11-09T09:17:44.194Z,5.30
2022-11-09T09:20:12.536Z,4.73
2022-11-09T09:22:41.240Z,5.30
2022-11-09T09:25:15.661Z,3.97
2022-11-09T09:27:45.932Z,4.27
2022-11-09T09:30:14.603Z,5.00
2022-11-09T09:32:43.004Z,4.30
2022-11-09T09:35:11.667Z,4.73
2022-11-09T09:37:41.935Z,4.70
2022-11-09T09:40:24.739Z,4.33
2022-11-09T09:42:55.276Z,4.47
2022-11-09T09:45:27.213Z,3.73
2022-11-09T09:48:01.628Z,3.87
2022-11-09T09:50:32.887Z,4.00
2022-11-09T09:53:24.265Z,3.90
2022-11-09T09:55:57.508Z,2.87
2022-11-09T09:58:27.902Z,2.63
2022-11-09T10:00:59.644Z,2.83
2022-11-09T10:03:27.512Z,2.10
2022-11-09T10:06:02.785Z,2.10
2022-11-09T10:08:43.195Z,1.57
2022-11-09T10:11:29.003Z,1.77
2022-11-09T10:14:16.715Z,1.40
2022-11-09T10:16:53.689Z,1.87
2022-11-09T10:19:36.860Z,2.80
2022-11-09T10:22:13.582Z,2.43
2022-11-09T10:25:17.163Z,3.33
2022-11-09T10:27:47.631Z,3.90
2022-11-09T10:30:17.566Z,3.03
2022-11-09T10:32:49.383Z,3.07
2022-11-09T10:35:21.177Z,2.90
2022-11-09T10:37:50.738Z,4.73
2022-11-09T10:40:23.330Z,3.73
2022-11-09T10:43:13.060Z,3.07
2022-11-09T10:46:04.976Z,2.63
2022-11-09T10:48:53.002Z,2.67
2022-11-09T10:51:42.380Z,2.60
2022-11-09T10:54:32.488Z,2.57
2022-11-09T10:57:21.397Z,2.10
2022-11-09T11:00:17.026Z,2.50
2022-11-09T11:03:12.331Z,2.70
2022-11-09T11:06:00.426Z,2.30
2022-11-09T11:08:48.255Z,1.90
2022-11-09T11:11:37.291Z,2.13
2022-11-09T11:14:31.661Z,2.13
2022-11-09T11:17:25.074Z,2.37
2022-11-09T11:20:29.847Z,2.50
2022-11-09T11:23:19.270Z,2.17
2022-11-09T11:26:21.390Z,1.70
2022-11-09T11:29:23.619Z,1.80
2022-11-09T11:32:12.835Z,1.87
2022-11-09T11:35:01.553Z,1.93
2022-11-09T11:38:00.150Z,2.10
2022-11-09T11:41:01.003Z,1.90
2022-11-09T11:43:55.588Z,1.93
2022-11-09T11:46:47.210Z,2.13
2022-11-09T11:49:53.637Z,2.07
2022-11-09T11:52:54.806Z,2.40
2022-11-09T11:55:55.642Z,2.57
2022-11-09T11:59:06.278Z,2.90
2022-11-09T12:02:10.782Z,2.20
2022-11-09T12:05:32.212Z,2.10
2022-11-09T12:08:28.926Z,2.20
2022-11-09T12:11:35.557Z,1.40
2022-11-09T12:14:33.094Z,1.80
2022-11-09T12:17:28.415Z,1.70
2022-11-09T12:20:26.183Z,3.53
2022-11-09T12:23:35.624Z,3.40
2022-11-09T12:26:32.743Z,3.07
2022-11-09T12:29:22.146Z,2.63
2022-11-09T12:32:18.399Z,2.83
2022-11-09T12:35:19.164Z,2.50
2022-11-09T12:38:13.971Z,3.20
2022-11-09T12:41:05.388Z,3.40
2022-11-09T12:43:56.588Z,3.00
2022-11-09T12:46:47.501Z,2.27
2022-11-09T12:49:37.527Z,2.77
2022-11-09T12:52:29.250Z,1.77
2022-11-09T12:55:18.279Z,2.10
2022-11-09T12:58:06.028Z,1.30
2022-11-09T13:00:55.765Z,1.53
2022-11-09T13:03:55.521Z,1.52
2022-11-09T13:06:42.542Z,1.55
2022-11-09T13:09:40.002Z,2.10
2022-11-09T13:12:40.139Z,1.50
2022-11-09T13:15:29.918Z,1.40
2022-11-09T13:18:25.790Z,2.15
2022-11-09T13:21:39.217Z,2.10
2022-11-09T13:24:52.950Z,2.17
2022-11-09T13:27:44.972Z,2.13
2022-11-09T13:30:42.349Z,1.60
2022-11-09T13:33:29.469Z,2.43
2022-11-09T13:36:21.900Z,2.40
2022-11-09T13:39:31.843Z,2.70
2022-11-09T13:42:28.726Z,2.53
2022-11-09T13:45:27.937Z,1.73
2022-11-09T13:48:40.722Z,1.50
2022-11-09T13:51:42.744Z,1.70
2022-11-09T13:54:31.333Z,1.10
2022-11-09T13:57:17.955Z,1.70
2022-11-09T14:00:06.963Z,1.30
2022-11-09T14:02:58.378Z,1.57
2022-11-09T14:05:49.760Z,1.23
2022-11-09T14:08:40.673Z,1.40
2022-11-09T14:11:52.504Z,1.50
2022-11-09T14:15:20.253Z,1.45
2022-11-09T14:18:20.447Z,1.35
2022-11-09T14:21:21.838Z,1.80
2022-11-09T14:24:17.733Z,1.10
2022-11-09T14:27:13.786Z,1.00
2022-11-09T14:30:02.554Z,1.80
2022-11-09T14:32:50.630Z,1.90
2022-11-09T14:35:39.195Z,3.53
2022-11-09T14:38:29.852Z,2.30
2022-11-09T14:41:22.464Z,2.00
2022-11-09T14:44:21.268Z,2.37
2022-11-09T14:47:14.288Z,2.55
2022-11-09T14:50:01.301Z,2.80
2022-11-09T14:52:48.466Z,2.77
2022-11-09T14:55:39.788Z,2.70
2022-11-09T14:58:27.173Z,2.00
2022-11-09T15:01:24.272Z,2.10
2022-11-09T15:04:14.196Z,2.60
2022-11-09T15:07:03.032Z,1.90
2022-11-09T15:09:52.063Z,2.90
2022-11-09T15:12:45.440Z,2.93
2022-11-09T15:15:35.684Z,2.83
2022-11-09T15:18:33.468Z,2.60
2022-11-09T15:21:34.608Z,5.90
2022-11-09T15:24:25.193Z,4.77
2022-11-09T15:27:30.919Z,4.37
2022-11-09T15:30:33.563Z,4.50
2022-11-09T15:33:26.064Z,5.57
2022-11-09T15:36:26.072Z,6.60
2022-11-09T15:39:16.944Z,5.60
2022-11-09T15:42:03.217Z,4.43
2022-11-09T15:44:53.442Z,5.33
2022-11-09T15:47:41.116Z,4.53
2022-11-09T15:50:28.797Z,4.03
2022-11-09T15:53:15.888Z,6.80
2022-11-09T15:56:02.096Z,6.60
2022-11-09T15:58:49.302Z,4.50
2022-11-09T16:01:36.062Z,3.00
2022-11-09T16:04:23.747Z,4.27
2022-11-09T16:07:14.845Z,5.97
2022-11-09T16:10:01.156Z,12.20
2022-11-09T16:12:47.987Z,8.37
2022-11-09T16:15:34.860Z,4.30
2022-11-09T16:18:25.678Z,2.90
2022-11-09T16:21:15.891Z,2.60
2022-11-09T16:24:02.453Z,2.17
2022-11-09T16:26:48.866Z,2.10
2022-11-09T16:29:35.366Z,2.03
2022-11-09T16:32:21.777Z,2.73
2022-11-09T16:38:17.908Z,5.50
2022-11-09T16:41:05.387Z,4.20
2022-11-09T16:43:54.825Z,4.33
2022-11-09T16:46:44.783Z,7.70
2022-11-09T16:49:32.568Z,8.47
2022-11-09T16:52:19.684Z,5.83
2022-11-09T16:55:09.359Z,4.93
2022-11-09T16:57:56.099Z,5.50
2022-11-09T17:01:04.515Z,5.73
2022-11-09T17:03:51.328Z,5.13
2022-11-09T17:06:37.669Z,8.93
2022-11-09T17:09:24.797Z,4.73
2022-11-09T17:12:12.501Z,4.67
2022-11-09T17:14:59.147Z,3.60
2022-11-09T17:17:46.087Z,3.10
2022-11-09T17:20:32.777Z,3.00
2022-11-09T17:23:20.329Z,2.97
2022-11-09T17:26:08.916Z,2.70
2022-11-09T17:28:56.707Z,2.60
2022-11-09T17:31:43.617Z,3.30
2022-11-09T17:34:30.029Z,2.67
2022-11-09T17:37:16.432Z,2.70
2022-11-09T17:40:03.016Z,3.60
2022-11-09T17:42:49.522Z,2.40
2022-11-09T17:45:37.490Z,5.17
2022-11-09T17:48:24.175Z,4.60
2022-11-09T17:51:11.407Z,3.47
2022-11-09T17:53:57.926Z,3.23
2022-11-09T17:56:44.341Z,5.00
2022-11-09T17:59:30.863Z,2.87
2022-11-09T18:02:18.584Z,3.73
2022-11-09T18:05:06.270Z,2.63
2022-11-09T18:07:52.574Z,2.20
2022-11-09T18:10:40.973Z,2.07
2022-11-09T18:13:27.797Z,1.60
2022-11-09T18:16:17.652Z,1.90
2022-11-09T18:19:06.521Z,2.00
2022-11-09T18:21:53.004Z,1.83
2022-11-09T18:24:39.484Z,1.93
2022-11-09T18:27:30.047Z,2.07
2022-11-09T18:30:17.641Z,2.67
2022-11-09T18:33:03.750Z,2.67
2022-11-09T18:35:58.660Z,2.40
2022-11-09T18:38:45.519Z,2.27
2022-11-09T18:41:32.357Z,2.10
2022-11-09T18:44:18.641Z,2.00
2022-11-09T18:47:06.817Z,2.13
2022-11-09T18:49:53.898Z,2.40
2022-11-09T18:52:41.681Z,3.33
2022-11-09T18:55:28.181Z,3.20
2022-11-09T18:58:14.778Z,2.60
2022-11-09T19:01:03.784Z,2.40
2022-11-09T19:03:54.975Z,1.97
2022-11-09T19:06:44.711Z,2.60
2022-11-09T19:09:35.316Z,2.57
2022-11-09T19:12:21.678Z,2.13
2022-11-09T19:15:08.717Z,3.90
2022-11-09T19:17:55.479Z,2.80
2022-11-09T19:20:41.686Z,2.90
2022-11-09T19:23:33.823Z,2.77
2022-11-09T19:26:22.840Z,3.10
2022-11-09T19:29:09.729Z,3.23
2022-11-09T19:31:55.882Z,2.93
2022-11-09T19:34:43.529Z,4.80
2022-11-09T19:37:29.828Z,2.90
2022-11-09T19:40:16.915Z,3.30
2022-11-09T19:43:04.648Z,2.87
2022-11-09T19:45:50.806Z,2.80
2022-11-09T19:48:37.552Z,2.40
2022-11-09T19:51:24.299Z,2.20
2022-11-09T19:54:12.991Z,1.80
2022-11-09T19:56:59.476Z,2.17
2022-11-09T19:59:47.248Z,2.20
2022-11-09T20:02:33.692Z,1.80
2022-11-09T20:05:20.218Z,1.60
2022-11-09T20:08:06.585Z,1.70
2022-11-09T20:10:54.233Z,1.60
2022-11-09T20:13:41.475Z,2.07
2022-11-09T20:16:29.445Z,1.63
2022-11-09T20:19:15.596Z,1.60
2022-11-09T20:22:02.322Z,1.40
2022-11-09T20:24:49.436Z,2.07
2022-11-09T20:27:35.638Z,1.90
2022-11-09T20:30:22.412Z,4.77
2022-11-09T20:33:10.583Z,12.40
2022-11-09T20:35:57.594Z,4.17
2022-11-09T20:38:43.693Z,9.57
2022-11-09T20:41:30.324Z,10.03
2022-11-09T20:44:17.266Z,7.20
2022-11-09T20:47:03.922Z,8.27
2022-11-09T20:49:51.890Z,6.73
2022-11-09T20:52:38.102Z,7.57
2022-11-09T20:55:25.017Z,7.20
2022-11-09T20:58:13.704Z,25.00
2022-11-09T21:01:01.575Z,23.17
2022-11-09T21:03:50.831Z,6.13
2022-11-09T21:06:38.879Z,8.70
2022-11-09T21:09:25.358Z,3.60
2022-11-09T21:12:24.774Z,3.33
2022-11-09T21:15:14.069Z,4.83
2022-11-09T21:18:00.297Z,4.10
2022-11-09T21:20:46.802Z,1.73
2022-11-09T21:23:53.318Z,1.50
2022-11-09T21:26:57.354Z,3.47
2022-11-09T21:29:53.011Z,1.90
2022-11-09T21:32:40.104Z,1.90
2022-11-09T21:35:26.537Z,1.40
2022-11-09T21:38:12.932Z,1.90
2022-11-09T21:41:22.319Z,1.93
2022-11-09T21:44:10.066Z,2.93
2022-11-09T21:46:57.934Z,5.33
2022-11-09T21:49:44.163Z,2.50
2022-11-09T21:52:30.636Z,1.70
2022-11-09T21:55:17.312Z,1.90
2022-11-09T21:58:05.274Z,1.57
2022-11-09T22:00:51.685Z,1.60
2022-11-09T22:03:38.647Z,2.20
2022-11-09T22:06:25.604Z,1.70
2022-11-09T22:09:15.257Z,2.70
2022-11-09T22:12:19.397Z,2.00
2022-11-09T22:15:41.232Z,3.47
2022-11-09T22:18:49.893Z,4.30
2022-11-09T22:21:36.184Z,3.53
2022-11-09T22:24:22.365Z,2.30
2022-11-09T22:27:09.790Z,3.23
2022-11-09T22:29:56.268Z,2.70
2022-11-09T22:32:44.142Z,2.50
2022-11-09T22:35:30.692Z,3.23
2022-11-09T22:38:17.088Z,2.40
2022-11-09T22:41:06.056Z,4.23
2022-11-09T22:43:53.931Z,3.37
2022-11-09T22:46:40.397Z,2.63
2022-11-09T22:49:28.012Z,3.90
2022-11-09T22:52:14.563Z,3.30
2022-11-09T22:55:01.049Z,4.23
2022-11-09T22:57:47.648Z,3.50
2022-11-09T23:00:34.054Z,3.27
2022-11-09T23:03:21.101Z,3.30
2022-11-09T23:06:11.398Z,2.37
2022-11-09T23:08:57.774Z,2.70
2022-11-09T23:11:44.353Z,1.73
2022-11-09T23:14:45.144Z,2.30
2022-11-09T23:17:49.405Z,1.93
2022-11-09T23:20:36.131Z,1.97
2022-11-09T23:23:24.048Z,2.47
2022-11-09T23:26:11.638Z,2.40
2022-11-09T23:28:58.500Z,1.70
2022-11-09T23:31:44.698Z,1.93
2022-11-09T23:34:31.134Z,2.40
2022-11-09T23:37:17.705Z,1.90
2022-11-09T23:40:06.963Z,1.60
2022-11-09T23:43:00.198Z,1.77
2022-11-09T23:45:47.181Z,1.97
2022-11-09T23:48:33.941Z,1.70
2022-11-09T23:51:20.334Z,1.70
2022-11-09T23:54:06.847Z,1.57
2022-11-09T23:56:54.399Z,1.40
2022-11-09T23:59:40.881Z,1.83
